메인 페이지
METAR-TAF:

METAR-TAF

공항 :

Alta Floresta, 마투그로수, 브라질

위도: 09-52S, 경도: 056-06W, 고도: 288m

현재 날씨관측

예보는 1 시간 22분 전, 20:00시(UTC)에 발표되었습니다.
북북동5kt
온도 35°C
습도 32%
기압 1011 hPa
시정 10km 이상
고도 4500ft 상공 구름 조금

METAR: SBAT 212000Z 02005KT 9999 FEW045 35/16 Q1011

시각: 17:22 (21:22 UTC)

예보

예보는 6 시간 1분 전, 15:21시(UTC)에 발표되었습니다.
예보 대상 시간: 21일 18시부터 22일 06시까지 (UTC)
동남동7kt
시정 10km 이상
고도 4000ft 상공 구름 보통
전환 중
21일 21시부터 21일 23시까지 (UTC)
kt

TAF: SBAT 211521Z 2118/2206 12007KT 9999 SCT040 TX36/2118Z TN25/2206Z BECMG 2121/2123 00000KT RMK PHI

4,000개 이상의 공항 관측 자료 및 예보 (METAR 및 TAF 보고).

지도상에서 검색 가능한 기상관측소가 노란 점과 빨간 점으로 표시되어 있습니다.

기상관측소 명을 보려면 표시 위로 마우스를 이동하세요.

날씨 관측과 예보를 보려면 클릭하세요.

지도 변경 : 확대하려면 엑스 표시가 있는 녹색 버튼, 축소하려면 빼기 표시가 있는 녹색 버튼, 다음 페이지의 지도를 보려면 녹색 화살표를 클릭하세요.


METAR-TAF: